sensor_id;sensor_type;location;lat;lon;timestamp;temperature;humidity
18041;DHT22;9145;48.588;9.250;2023-07-13T00:00:18;21.20;99.90
18041;DHT22;9145;48.588;9.250;2023-07-13T00:02:44;21.20;99.90
18041;DHT22;9145;48.588;9.250;2023-07-13T00:05:13;21.10;99.90
18041;DHT22;9145;48.588;9.250;2023-07-13T00:07:39;21.10;99.90
18041;DHT22;9145;48.588;9.250;2023-07-13T00:10:08;21.10;99.90
18041;DHT22;9145;48.588;9.250;2023-07-13T00:12:35;21.10;99.90
18041;DHT22;9145;48.588;9.250;2023-07-13T00:15:06;21.10;99.90
18041;DHT22;9145;48.588;9.250;2023-07-13T00:17:33;21.10;99.90
18041;DHT22;9145;48.588;9.250;2023-07-13T00:20:00;21.00;99.90
18041;DHT22;9145;48.588;9.250;2023-07-13T00:22:29;21.00;99.90
18041;DHT22;9145;48.588;9.250;2023-07-13T00:24:55;20.90;99.90
18041;DHT22;9145;48.588;9.250;2023-07-13T00:27:23;20.80;99.90
18041;DHT22;9145;48.588;9.250;2023-07-13T00:29:51;20.70;99.90
18041;DHT22;9145;48.588;9.250;2023-07-13T00:32:18;20.60;99.90
18041;DHT22;9145;48.588;9.250;2023-07-13T00:34:45;20.60;99.90
18041;DHT22;9145;48.588;9.250;2023-07-13T00:37:12;20.60;99.90
18041;DHT22;9145;48.588;9.250;2023-07-13T00:39:40;20.60;99.90
18041;DHT22;9145;48.588;9.250;2023-07-13T00:42:07;20.60;99.90
18041;DHT22;9145;48.588;9.250;2023-07-13T00:44:34;20.50;99.90
18041;DHT22;9145;48.588;9.250;2023-07-13T00:47:01;20.50;99.90
18041;DHT22;9145;48.588;9.250;2023-07-13T00:49:30;20.50;99.90
18041;DHT22;9145;48.588;9.250;2023-07-13T00:52:00;20.50;99.90
18041;DHT22;9145;48.588;9.250;2023-07-13T00:54:32;20.50;99.90
18041;DHT22;9145;48.588;9.250;2023-07-13T00:57:03;20.60;99.90
18041;DHT22;9145;48.588;9.250;2023-07-13T00:59:30;20.70;99.90
18041;DHT22;9145;48.588;9.250;2023-07-13T01:01:58;20.70;99.90
18041;DHT22;9145;48.588;9.250;2023-07-13T01:04:25;20.70;99.90
18041;DHT22;9145;48.588;9.250;2023-07-13T01:06:52;20.80;99.90
18041;DHT22;9145;48.588;9.250;2023-07-13T01:09:19;20.80;99.90
18041;DHT22;9145;48.588;9.250;2023-07-13T01:11:47;20.70;99.90
18041;DHT22;9145;48.588;9.250;2023-07-13T01:14:15;20.70;99.90
18041;DHT22;9145;48.588;9.250;2023-07-13T01:16:45;20.70;99.90
18041;DHT22;9145;48.588;9.250;2023-07-13T01:19:23;20.70;99.90
18041;DHT22;9145;48.588;9.250;2023-07-13T01:21:56;20.80;99.90
18041;DHT22;9145;48.588;9.250;2023-07-13T01:24:23;20.80;99.90
18041;DHT22;9145;48.588;9.250;2023-07-13T01:26:51;20.90;99.90
18041;DHT22;9145;48.588;9.250;2023-07-13T01:29:18;20.80;99.90
18041;DHT22;9145;48.588;9.250;2023-07-13T01:31:44;20.70;99.90
18041;DHT22;9145;48.588;9.250;2023-07-13T01:34:11;20.70;99.90
18041;DHT22;9145;48.588;9.250;2023-07-13T01:36:38;20.70;99.90
18041;DHT22;9145;48.588;9.250;2023-07-13T01:39:07;20.70;99.90
18041;DHT22;9145;48.588;9.250;2023-07-13T01:41:33;20.70;99.90
18041;DHT22;9145;48.588;9.250;2023-07-13T01:44:00;20.70;99.90
18041;DHT22;9145;48.588;9.250;2023-07-13T01:46:27;20.70;99.90
18041;DHT22;9145;48.588;9.250;2023-07-13T01:48:54;20.70;99.90
18041;DHT22;9145;48.588;9.250;2023-07-13T01:51:20;20.60;99.90
18041;DHT22;9145;48.588;9.250;2023-07-13T01:53:47;20.70;99.90
18041;DHT22;9145;48.588;9.250;2023-07-13T01:56:16;20.70;99.90
18041;DHT22;9145;48.588;9.250;2023-07-13T01:58:44;20.70;99.90
18041;DHT22;9145;48.588;9.250;2023-07-13T02:01:11;20.70;99.90
18041;DHT22;9145;48.588;9.250;2023-07-13T02:03:38;20.80;99.90
18041;DHT22;9145;48.588;9.250;2023-07-13T02:06:05;20.80;99.90
18041;DHT22;9145;48.588;9.250;2023-07-13T02:08:32;20.80;99.90
18041;DHT22;9145;48.588;9.250;2023-07-13T02:10:59;20.80;99.90
18041;DHT22;9145;48.588;9.250;2023-07-13T02:13:28;20.80;99.90
18041;DHT22;9145;48.588;9.250;2023-07-13T02:15:54;20.80;99.90
18041;DHT22;9145;48.588;9.250;2023-07-13T02:18:21;20.70;99.90
18041;DHT22;9145;48.588;9.250;2023-07-13T02:20:48;20.70;99.90
18041;DHT22;9145;48.588;9.250;2023-07-13T02:23:15;20.70;99.90
18041;DHT22;9145;48.588;9.250;2023-07-13T02:25:42;20.70;99.90
18041;DHT22;9145;48.588;9.250;2023-07-13T02:28:08;20.70;99.90
18041;DHT22;9145;48.588;9.250;2023-07-13T02:30:37;20.60;99.90
18041;DHT22;9145;48.588;9.250;2023-07-13T02:33:04;20.60;99.90
18041;DHT22;9145;48.588;9.250;2023-07-13T02:35:31;20.60;99.90
18041;DHT22;9145;48.588;9.250;2023-07-13T02:37:58;20.50;99.90
18041;DHT22;9145;48.588;9.250;2023-07-13T02:40:24;20.50;99.90
18041;DHT22;9145;48.588;9.250;2023-07-13T02:42:51;20.40;99.90
18041;DHT22;9145;48.588;9.250;2023-07-13T02:45:18;20.40;99.90
18041;DHT22;9145;48.588;9.250;2023-07-13T02:47:46;20.30;99.90
18041;DHT22;9145;48.588;9.250;2023-07-13T02:50:13;20.30;99.90
18041;DHT22;9145;48.588;9.250;2023-07-13T02:52:40;20.40;99.90
18041;DHT22;9145;48.588;9.250;2023-07-13T02:55:07;20.30;99.90
18041;DHT22;9145;48.588;9.250;2023-07-13T02:57:34;20.20;99.90
18041;DHT22;9145;48.588;9.250;2023-07-13T03:00:02;20.10;99.90
18041;DHT22;9145;48.588;9.250;2023-07-13T03:02:31;20.10;99.90
18041;DHT22;9145;48.588;9.250;2023-07-13T03:04:59;20.00;99.90
18041;DHT22;9145;48.588;9.250;2023-07-13T03:07:26;20.00;99.90
18041;DHT22;9145;48.588;9.250;2023-07-13T03:09:54;19.90;99.90
18041;DHT22;9145;48.588;9.250;2023-07-13T03:12:22;19.80;99.90
18041;DHT22;9145;48.588;9.250;2023-07-13T03:14:48;19.80;99.90
18041;DHT22;9145;48.588;9.250;2023-07-13T03:17:15;19.70;99.90
18041;DHT22;9145;48.588;9.250;2023-07-13T03:19:42;19.80;99.90
18041;DHT22;9145;48.588;9.250;2023-07-13T03:22:10;19.80;99.90
18041;DHT22;9145;48.588;9.250;2023-07-13T03:24:37;19.80;99.90
18041;DHT22;9145;48.588;9.250;2023-07-13T03:27:05;19.70;99.90
18041;DHT22;9145;48.588;9.250;2023-07-13T03:29:32;19.70;99.90
18041;DHT22;9145;48.588;9.250;2023-07-13T03:31:59;19.80;99.90
18041;DHT22;9145;48.588;9.250;2023-07-13T03:34:25;19.80;99.90
18041;DHT22;9145;48.588;9.250;2023-07-13T03:36:54;19.70;99.90
18041;DHT22;9145;48.588;9.250;2023-07-13T03:39:22;19.70;99.90
18041;DHT22;9145;48.588;9.250;2023-07-13T03:41:50;19.60;99.90
18041;DHT22;9145;48.588;9.250;2023-07-13T03:44:17;19.60;99.90
18041;DHT22;9145;48.588;9.250;2023-07-13T03:46:44;19.60;99.90
18041;DHT22;9145;48.588;9.250;2023-07-13T03:49:11;19.60;99.90
18041;DHT22;9145;48.588;9.250;2023-07-13T03:51:38;19.60;99.90
18041;DHT22;9145;48.588;9.250;2023-07-13T03:54:05;19.60;99.90
18041;DHT22;9145;48.588;9.250;2023-07-13T03:56:33;19.60;99.90
18041;DHT22;9145;48.588;9.250;2023-07-13T03:59:00;19.60;99.90
18041;DHT22;9145;48.588;9.250;2023-07-13T04:01:28;19.60;99.90
18041;DHT22;9145;48.588;9.250;2023-07-13T04:03:54;19.60;99.90
18041;DHT22;9145;48.588;9.250;2023-07-13T04:06:23;19.40;99.90
18041;DHT22;9145;48.588;9.250;2023-07-13T04:08:54;19.40;99.90
18041;DHT22;9145;48.588;9.250;2023-07-13T04:11:23;19.50;99.90
18041;DHT22;9145;48.588;9.250;2023-07-13T04:13:51;19.40;99.90
18041;DHT22;9145;48.588;9.250;2023-07-13T04:16:19;19.40;99.90
18041;DHT22;9145;48.588;9.250;2023-07-13T04:18:47;19.40;99.90
18041;DHT22;9145;48.588;9.250;2023-07-13T04:21:14;19.40;99.90
18041;DHT22;9145;48.588;9.250;2023-07-13T04:23:41;19.40;99.90
18041;DHT22;9145;48.588;9.250;2023-07-13T04:26:08;19.50;99.90
18041;DHT22;9145;48.588;9.250;2023-07-13T04:28:35;19.50;99.90
18041;DHT22;9145;48.588;9.250;2023-07-13T04:31:03;19.50;99.90
18041;DHT22;9145;48.588;9.250;2023-07-13T04:33:30;19.50;99.90
18041;DHT22;9145;48.588;9.250;2023-07-13T04:35:58;19.60;99.90
18041;DHT22;9145;48.588;9.250;2023-07-13T04:38:26;19.50;99.90
18041;DHT22;9145;48.588;9.250;2023-07-13T04:40:55;19.50;99.90
18041;DHT22;9145;48.588;9.250;2023-07-13T04:43:22;19.50;99.90
18041;DHT22;9145;48.588;9.250;2023-07-13T04:45:50;19.60;99.90
18041;DHT22;9145;48.588;9.250;2023-07-13T04:48:18;19.60;99.90
18041;DHT22;9145;48.588;9.250;2023-07-13T04:50:45;19.70;99.90
18041;DHT22;9145;48.588;9.250;2023-07-13T04:53:12;19.70;99.90
18041;DHT22;9145;48.588;9.250;2023-07-13T04:55:39;19.70;99.90
18041;DHT22;9145;48.588;9.250;2023-07-13T04:58:06;19.70;99.90
18041;DHT22;9145;48.588;9.250;2023-07-13T05:00:33;19.70;99.90
18041;DHT22;9145;48.588;9.250;2023-07-13T05:03:00;19.70;99.90
18041;DHT22;9145;48.588;9.250;2023-07-13T05:05:28;19.80;99.90
18041;DHT22;9145;48.588;9.250;2023-07-13T05:07:55;19.80;99.90
18041;DHT22;9145;48.588;9.250;2023-07-13T05:10:22;19.70;99.90
18041;DHT22;9145;48.588;9.250;2023-07-13T05:12:49;19.80;99.90
18041;DHT22;9145;48.588;9.250;2023-07-13T05:15:16;19.80;99.90
18041;DHT22;9145;48.588;9.250;2023-07-13T05:17:46;19.80;99.90
18041;DHT22;9145;48.588;9.250;2023-07-13T05:20:13;19.80;99.90
18041;DHT22;9145;48.588;9.250;2023-07-13T05:22:41;19.80;99.90
18041;DHT22;9145;48.588;9.250;2023-07-13T05:25:08;19.80;99.90
18041;DHT22;9145;48.588;9.250;2023-07-13T05:27:36;19.80;99.90
18041;DHT22;9145;48.588;9.250;2023-07-13T05:30:04;19.80;99.90
18041;DHT22;9145;48.588;9.250;2023-07-13T05:32:31;19.80;99.90
18041;DHT22;9145;48.588;9.250;2023-07-13T05:34:58;19.90;99.90
18041;DHT22;9145;48.588;9.250;2023-07-13T05:37:24;19.90;99.90
18041;DHT22;9145;48.588;9.250;2023-07-13T05:39:53;19.90;99.90
18041;DHT22;9145;48.588;9.250;2023-07-13T05:42:19;19.90;99.90
18041;DHT22;9145;48.588;9.250;2023-07-13T05:44:46;19.90;99.90
18041;DHT22;9145;48.588;9.250;2023-07-13T05:47:13;20.00;99.90
18041;DHT22;9145;48.588;9.250;2023-07-13T05:49:40;20.00;99.90
18041;DHT22;9145;48.588;9.250;2023-07-13T05:52:07;20.10;99.90
18041;DHT22;9145;48.588;9.250;2023-07-13T05:54:34;20.10;99.90
18041;DHT22;9145;48.588;9.250;2023-07-13T05:57:02;20.10;99.90
18041;DHT22;9145;48.588;9.250;2023-07-13T05:59:29;20.20;99.90
18041;DHT22;9145;48.588;9.250;2023-07-13T06:01:56;20.20;99.90
18041;DHT22;9145;48.588;9.250;2023-07-13T06:04:23;20.30;99.90
18041;DHT22;9145;48.588;9.250;2023-07-13T06:06:49;20.40;99.90
18041;DHT22;9145;48.588;9.250;2023-07-13T06:09:16;20.40;99.90
18041;DHT22;9145;48.588;9.250;2023-07-13T06:11:43;20.50;99.90
18041;DHT22;9145;48.588;9.250;2023-07-13T06:14:11;20.40;99.90
18041;DHT22;9145;48.588;9.250;2023-07-13T06:16:39;20.40;99.90
18041;DHT22;9145;48.588;9.250;2023-07-13T06:19:06;20.40;99.90
18041;DHT22;9145;48.588;9.250;2023-07-13T06:21:33;20.50;99.90
18041;DHT22;9145;48.588;9.250;2023-07-13T06:24:00;20.50;99.90
18041;DHT22;9145;48.588;9.250;2023-07-13T06:26:27;20.50;99.90
18041;DHT22;9145;48.588;9.250;2023-07-13T06:28:54;20.50;99.90
18041;DHT22;9145;48.588;9.250;2023-07-13T06:31:22;20.40;99.90
18041;DHT22;9145;48.588;9.250;2023-07-13T06:33:49;20.40;99.90
18041;DHT22;9145;48.588;9.250;2023-07-13T06:36:16;20.50;99.90
18041;DHT22;9145;48.588;9.250;2023-07-13T06:38:42;20.50;99.90
18041;DHT22;9145;48.588;9.250;2023-07-13T06:41:09;20.60;99.90
18041;DHT22;9145;48.588;9.250;2023-07-13T06:43:36;20.60;99.90
18041;DHT22;9145;48.588;9.250;2023-07-13T06:46:03;20.60;99.90
18041;DHT22;9145;48.588;9.250;2023-07-13T06:48:31;20.60;99.90
18041;DHT22;9145;48.588;9.250;2023-07-13T06:50:58;20.60;99.90
18041;DHT22;9145;48.588;9.250;2023-07-13T06:53:25;20.70;99.90
18041;DHT22;9145;48.588;9.250;2023-07-13T06:55:51;20.80;99.90
18041;DHT22;9145;48.588;9.250;2023-07-13T06:58:19;21.00;99.90
18041;DHT22;9145;48.588;9.250;2023-07-13T07:00:46;21.10;99.90
18041;DHT22;9145;48.588;9.250;2023-07-13T07:03:13;21.10;99.90
18041;DHT22;9145;48.588;9.250;2023-07-13T07:05:41;21.10;99.90
18041;DHT22;9145;48.588;9.250;2023-07-13T07:08:08;21.10;99.90
18041;DHT22;9145;48.588;9.250;2023-07-13T07:10:35;21.20;99.90
18041;DHT22;9145;48.588;9.250;2023-07-13T07:13:03;21.30;99.90
18041;DHT22;9145;48.588;9.250;2023-07-13T07:15:30;21.30;99.90
18041;DHT22;9145;48.588;9.250;2023-07-13T07:17:57;21.40;99.90
18041;DHT22;9145;48.588;9.250;2023-07-13T07:20:23;21.40;99.90
18041;DHT22;9145;48.588;9.250;2023-07-13T07:22:52;21.50;99.90
18041;DHT22;9145;48.588;9.250;2023-07-13T07:25:18;21.50;99.90
18041;DHT22;9145;48.588;9.250;2023-07-13T07:27:45;21.50;99.90
18041;DHT22;9145;48.588;9.250;2023-07-13T07:30:13;21.50;99.90
18041;DHT22;9145;48.588;9.250;2023-07-13T07:32:40;21.50;99.90
18041;DHT22;9145;48.588;9.250;2023-07-13T07:35:08;21.60;99.90
18041;DHT22;9145;48.588;9.250;2023-07-13T07:37:35;21.80;99.90
18041;DHT22;9145;48.588;9.250;2023-07-13T07:40:03;21.80;99.90
18041;DHT22;9145;48.588;9.250;2023-07-13T07:42:30;21.90;99.90
18041;DHT22;9145;48.588;9.250;2023-07-13T07:44:57;22.00;99.90
18041;DHT22;9145;48.588;9.250;2023-07-13T07:47:24;22.30;99.90
18041;DHT22;9145;48.588;9.250;2023-07-13T07:49:51;22.50;99.90
18041;DHT22;9145;48.588;9.250;2023-07-13T07:52:18;22.50;99.90
18041;DHT22;9145;48.588;9.250;2023-07-13T07:54:44;22.40;99.90
18041;DHT22;9145;48.588;9.250;2023-07-13T07:57:13;22.40;99.90
18041;DHT22;9145;48.588;9.250;2023-07-13T07:59:39;22.50;99.90
18041;DHT22;9145;48.588;9.250;2023-07-13T08:02:08;22.50;99.90
18041;DHT22;9145;48.588;9.250;2023-07-13T08:04:35;22.50;99.90
18041;DHT22;9145;48.588;9.250;2023-07-13T08:07:02;22.70;99.90
18041;DHT22;9145;48.588;9.250;2023-07-13T08:09:29;22.60;99.90
18041;DHT22;9145;48.588;9.250;2023-07-13T08:11:56;22.70;99.90
18041;DHT22;9145;48.588;9.250;2023-07-13T08:14:24;22.90;99.90
18041;DHT22;9145;48.588;9.250;2023-07-13T08:16:51;23.10;99.90
18041;DHT22;9145;48.588;9.250;2023-07-13T08:19:17;23.40;99.90
18041;DHT22;9145;48.588;9.250;2023-07-13T08:21:44;23.50;99.90
18041;DHT22;9145;48.588;9.250;2023-07-13T08:24:13;23.60;99.90
18041;DHT22;9145;48.588;9.250;2023-07-13T08:26:40;23.70;99.90
18041;DHT22;9145;48.588;9.250;2023-07-13T08:29:07;23.90;99.90
18041;DHT22;9145;48.588;9.250;2023-07-13T08:31:36;24.00;99.90
18041;DHT22;9145;48.588;9.250;2023-07-13T08:34:02;23.90;99.30
18041;DHT22;9145;48.588;9.250;2023-07-13T08:36:29;23.50;98.60
18041;DHT22;9145;48.588;9.250;2023-07-13T08:38:56;23.40;99.00
18041;DHT22;9145;48.588;9.250;2023-07-13T08:41:23;23.50;98.20
18041;DHT22;9145;48.588;9.250;2023-07-13T08:43:53;23.80;98.60
18041;DHT22;9145;48.588;9.250;2023-07-13T08:46:25;24.00;99.20
18041;DHT22;9145;48.588;9.250;2023-07-13T08:48:56;24.30;99.10
18041;DHT22;9145;48.588;9.250;2023-07-13T08:51:34;24.40;96.40
18041;DHT22;9145;48.588;9.250;2023-07-13T08:54:03;24.20;97.00
18041;DHT22;9145;48.588;9.250;2023-07-13T08:56:32;24.20;96.40
18041;DHT22;9145;48.588;9.250;2023-07-13T08:59:02;24.20;97.40
18041;DHT22;9145;48.588;9.250;2023-07-13T09:01:43;24.20;94.50
18041;DHT22;9145;48.588;9.250;2023-07-13T09:04:16;24.10;93.90
18041;DHT22;9145;48.588;9.250;2023-07-13T09:06:55;24.10;94.80
18041;DHT22;9145;48.588;9.250;2023-07-13T09:09:28;24.00;95.70
18041;DHT22;9145;48.588;9.250;2023-07-13T09:12:03;24.00;95.70
18041;DHT22;9145;48.588;9.250;2023-07-13T09:14:40;24.00;96.20
18041;DHT22;9145;48.588;9.250;2023-07-13T09:17:14;24.20;96.20
18041;DHT22;9145;48.588;9.250;2023-07-13T09:19:46;24.40;94.10
18041;DHT22;9145;48.588;9.250;2023-07-13T09:22:17;24.30;94.80
18041;DHT22;9145;48.588;9.250;2023-07-13T09:24:53;24.50;94.80
18041;DHT22;9145;48.588;9.250;2023-07-13T09:27:29;24.70;95.80
18041;DHT22;9145;48.588;9.250;2023-07-13T09:30:01;24.70;93.80
18041;DHT22;9145;48.588;9.250;2023-07-13T09:32:29;24.50;93.90
18041;DHT22;9145;48.588;9.250;2023-07-13T09:34:58;24.40;94.20
18041;DHT22;9145;48.588;9.250;2023-07-13T09:37:29;24.50;94.70
18041;DHT22;9145;48.588;9.250;2023-07-13T09:39:59;24.30;94.30
18041;DHT22;9145;48.588;9.250;2023-07-13T09:42:26;24.40;94.60
18041;DHT22;9145;48.588;9.250;2023-07-13T09:44:55;24.30;95.30
18041;DHT22;9145;48.588;9.250;2023-07-13T09:47:24;24.50;95.30
18041;DHT22;9145;48.588;9.250;2023-07-13T09:49:58;24.40;94.90
18041;DHT22;9145;48.588;9.250;2023-07-13T09:52:26;24.30;94.10
18041;DHT22;9145;48.588;9.250;2023-07-13T09:54:54;24.30;95.10
18041;DHT22;9145;48.588;9.250;2023-07-13T09:57:26;24.10;94.90
18041;DHT22;9145;48.588;9.250;2023-07-13T09:59:54;24.00;94.70
18041;DHT22;9145;48.588;9.250;2023-07-13T10:02:26;23.80;94.30
18041;DHT22;9145;48.588;9.250;2023-07-13T10:04:58;24.00;95.40
18041;DHT22;9145;48.588;9.250;2023-07-13T10:07:26;24.60;94.50
18041;DHT22;9145;48.588;9.250;2023-07-13T10:09:53;25.00;93.20
18041;DHT22;9145;48.588;9.250;2023-07-13T10:12:21;25.20;93.00
18041;DHT22;9145;48.588;9.250;2023-07-13T10:14:52;25.40;92.90
18041;DHT22;9145;48.588;9.250;2023-07-13T10:17:26;25.50;93.30
18041;DHT22;9145;48.588;9.250;2023-07-13T10:19:59;25.80;92.10
18041;DHT22;9145;48.588;9.250;2023-07-13T10:22:29;26.00;91.20
18041;DHT22;9145;48.588;9.250;2023-07-13T10:24:58;26.10;92.30
18041;DHT22;9145;48.588;9.250;2023-07-13T10:27:32;26.30;92.60
18041;DHT22;9145;48.588;9.250;2023-07-13T10:30:04;26.80;91.10
18041;DHT22;9145;48.588;9.250;2023-07-13T10:32:34;26.60;91.30
18041;DHT22;9145;48.588;9.250;2023-07-13T10:35:04;26.50;90.50
18041;DHT22;9145;48.588;9.250;2023-07-13T10:37:40;26.60;92.50
18041;DHT22;9145;48.588;9.250;2023-07-13T10:40:13;26.40;88.10
18041;DHT22;9145;48.588;9.250;2023-07-13T10:42:45;26.60;91.60
18041;DHT22;9145;48.588;9.250;2023-07-13T10:45:14;26.60;88.20
18041;DHT22;9145;48.588;9.250;2023-07-13T10:47:42;26.30;89.60
18041;DHT22;9145;48.588;9.250;2023-07-13T10:50:17;26.50;90.40
18041;DHT22;9145;48.588;9.250;2023-07-13T10:52:46;26.90;91.30
18041;DHT22;9145;48.588;9.250;2023-07-13T10:55:36;27.10;86.60
18041;DHT22;9145;48.588;9.250;2023-07-13T10:58:12;27.00;87.90
18041;DHT22;9145;48.588;9.250;2023-07-13T11:00:50;26.80;89.30
18041;DHT22;9145;48.588;9.250;2023-07-13T11:03:22;26.40;88.00
18041;DHT22;9145;48.588;9.250;2023-07-13T11:06:07;26.30;90.20
18041;DHT22;9145;48.588;9.250;2023-07-13T11:08:37;26.40;90.50
18041;DHT22;9145;48.588;9.250;2023-07-13T11:11:34;26.60;92.10
18041;DHT22;9145;48.588;9.250;2023-07-13T11:14:02;26.80;90.00
18041;DHT22;9145;48.588;9.250;2023-07-13T11:16:35;26.70;90.10
18041;DHT22;9145;48.588;9.250;2023-07-13T11:19:27;27.00;91.10
18041;DHT22;9145;48.588;9.250;2023-07-13T11:22:21;27.00;90.00
18041;DHT22;9145;48.588;9.250;2023-07-13T11:24:59;27.10;90.00
18041;DHT22;9145;48.588;9.250;2023-07-13T11:27:39;27.20;91.70
18041;DHT22;9145;48.588;9.250;2023-07-13T11:30:17;27.30;90.90
18041;DHT22;9145;48.588;9.250;2023-07-13T11:32:50;27.10;88.40
18041;DHT22;9145;48.588;9.250;2023-07-13T11:35:26;26.70;89.60
18041;DHT22;9145;48.588;9.250;2023-07-13T11:37:55;26.30;90.00
18041;DHT22;9145;48.588;9.250;2023-07-13T11:40:25;26.10;90.80
18041;DHT22;9145;48.588;9.250;2023-07-13T11:42:59;26.30;90.50
18041;DHT22;9145;48.588;9.250;2023-07-13T11:45:26;26.80;89.30
18041;DHT22;9145;48.588;9.250;2023-07-13T11:47:53;26.90;88.30
18041;DHT22;9145;48.588;9.250;2023-07-13T11:50:23;27.10;86.90
18041;DHT22;9145;48.588;9.250;2023-07-13T11:52:52;27.40;88.30
18041;DHT22;9145;48.588;9.250;2023-07-13T11:55:23;27.50;89.20
18041;DHT22;9145;48.588;9.250;2023-07-13T11:57:52;27.10;88.50
18041;DHT22;9145;48.588;9.250;2023-07-13T12:00:23;26.60;85.50
18041;DHT22;9145;48.588;9.250;2023-07-13T12:02:54;26.20;86.40
18041;DHT22;9145;48.588;9.250;2023-07-13T12:05:22;26.20;87.40
18041;DHT22;9145;48.588;9.250;2023-07-13T12:07:49;26.50;88.60
18041;DHT22;9145;48.588;9.250;2023-07-13T12:10:23;27.10;89.80
18041;DHT22;9145;48.588;9.250;2023-07-13T12:12:53;27.10;85.30
18041;DHT22;9145;48.588;9.250;2023-07-13T12:15:20;26.70;85.50
18041;DHT22;9145;48.588;9.250;2023-07-13T12:17:49;26.50;86.60
18041;DHT22;9145;48.588;9.250;2023-07-13T12:20:20;26.50;86.70
18041;DHT22;9145;48.588;9.250;2023-07-13T12:22:49;26.70;90.30
18041;DHT22;9145;48.588;9.250;2023-07-13T12:25:17;27.00;90.00
18041;DHT22;9145;48.588;9.250;2023-07-13T12:27:48;27.50;84.90
18041;DHT22;9145;48.588;9.250;2023-07-13T12:30:25;27.60;85.40
18041;DHT22;9145;48.588;9.250;2023-07-13T12:33:00;27.50;85.20
18041;DHT22;9145;48.588;9.250;2023-07-13T12:35:28;27.50;88.70
18041;DHT22;9145;48.588;9.250;2023-07-13T12:37:59;27.80;84.50
18041;DHT22;9145;48.588;9.250;2023-07-13T12:40:31;27.80;82.10
18041;DHT22;9145;48.588;9.250;2023-07-13T12:43:01;27.70;84.90
18041;DHT22;9145;48.588;9.250;2023-07-13T12:45:30;27.30;85.30
18041;DHT22;9145;48.588;9.250;2023-07-13T12:47:59;27.30;82.60
18041;DHT22;9145;48.588;9.250;2023-07-13T12:50:30;27.70;83.60
18041;DHT22;9145;48.588;9.250;2023-07-13T12:53:02;27.90;81.30
18041;DHT22;9145;48.588;9.250;2023-07-13T12:55:29;27.70;81.10
18041;DHT22;9145;48.588;9.250;2023-07-13T12:58:02;27.50;84.20
18041;DHT22;9145;48.588;9.250;2023-07-13T13:00:31;27.50;80.40
18041;DHT22;9145;48.588;9.250;2023-07-13T13:03:03;27.60;81.60
18041;DHT22;9145;48.588;9.250;2023-07-13T13:05:32;27.80;82.30
18041;DHT22;9145;48.588;9.250;2023-07-13T13:07:59;28.00;80.60
18041;DHT22;9145;48.588;9.250;2023-07-13T13:10:26;28.60;85.70
18041;DHT22;9145;48.588;9.250;2023-07-13T13:12:53;29.20;83.10
18041;DHT22;9145;48.588;9.250;2023-07-13T13:15:21;29.20;79.90
18041;DHT22;9145;48.588;9.250;2023-07-13T13:17:49;28.60;81.60
18041;DHT22;9145;48.588;9.250;2023-07-13T13:20:18;28.30;80.60
18041;DHT22;9145;48.588;9.250;2023-07-13T13:22:45;27.90;80.40
18041;DHT22;9145;48.588;9.250;2023-07-13T13:25:13;28.00;83.80
18041;DHT22;9145;48.588;9.250;2023-07-13T13:27:42;28.30;83.70
18041;DHT22;9145;48.588;9.250;2023-07-13T13:30:11;28.80;87.90
18041;DHT22;9145;48.588;9.250;2023-07-13T13:32:40;29.50;88.00
18041;DHT22;9145;48.588;9.250;2023-07-13T13:35:12;29.90;83.60
18041;DHT22;9145;48.588;9.250;2023-07-13T13:37:40;30.10;85.30
18041;DHT22;9145;48.588;9.250;2023-07-13T13:40:14;29.80;79.60
18041;DHT22;9145;48.588;9.250;2023-07-13T13:42:41;29.70;80.20
18041;DHT22;9145;48.588;9.250;2023-07-13T13:45:09;30.10;81.60
18041;DHT22;9145;48.588;9.250;2023-07-13T13:47:38;30.60;79.90
18041;DHT22;9145;48.588;9.250;2023-07-13T13:50:17;30.40;77.50
18041;DHT22;9145;48.588;9.250;2023-07-13T13:52:44;29.80;76.30
18041;DHT22;9145;48.588;9.250;2023-07-13T13:55:15;29.30;80.00
18041;DHT22;9145;48.588;9.250;2023-07-13T13:57:43;29.10;78.50
18041;DHT22;9145;48.588;9.250;2023-07-13T14:00:10;28.90;77.60
18041;DHT22;9145;48.588;9.250;2023-07-13T14:02:41;28.90;81.30
18041;DHT22;9145;48.588;9.250;2023-07-13T14:05:12;29.10;77.30
18041;DHT22;9145;48.588;9.250;2023-07-13T14:07:40;29.10;77.20
18041;DHT22;9145;48.588;9.250;2023-07-13T14:10:12;29.30;74.10
18041;DHT22;9145;48.588;9.250;2023-07-13T14:12:40;29.50;75.50
18041;DHT22;9145;48.588;9.250;2023-07-13T14:15:14;29.90;76.80
18041;DHT22;9145;48.588;9.250;2023-07-13T14:17:44;29.90;76.70
18041;DHT22;9145;48.588;9.250;2023-07-13T14:20:12;30.40;71.40
18041;DHT22;9145;48.588;9.250;2023-07-13T14:22:40;30.30;72.50
18041;DHT22;9145;48.588;9.250;2023-07-13T14:25:11;30.10;70.00
18041;DHT22;9145;48.588;9.250;2023-07-13T14:27:38;30.30;70.40
18041;DHT22;9145;48.588;9.250;2023-07-13T14:30:12;30.40;68.80
18041;DHT22;9145;48.588;9.250;2023-07-13T14:32:39;30.30;68.60
18041;DHT22;9145;48.588;9.250;2023-07-13T14:35:08;29.90;69.60
18041;DHT22;9145;48.588;9.250;2023-07-13T14:37:37;30.20;71.20
18041;DHT22;9145;48.588;9.250;2023-07-13T14:40:13;30.00;67.50
18041;DHT22;9145;48.588;9.250;2023-07-13T14:42:40;29.70;72.50
18041;DHT22;9145;48.588;9.250;2023-07-13T14:45:13;30.00;70.40
18041;DHT22;9145;48.588;9.250;2023-07-13T14:47:40;30.00;68.40
18041;DHT22;9145;48.588;9.250;2023-07-13T14:50:14;30.10;68.10
18041;DHT22;9145;48.588;9.250;2023-07-13T14:52:42;30.50;70.00
18041;DHT22;9145;48.588;9.250;2023-07-13T14:55:11;31.40;68.80
18041;DHT22;9145;48.588;9.250;2023-07-13T14:57:39;31.40;66.70
18041;DHT22;9145;48.588;9.250;2023-07-13T15:00:13;30.70;67.40
18041;DHT22;9145;48.588;9.250;2023-07-13T15:02:41;29.70;67.50
18041;DHT22;9145;48.588;9.250;2023-07-13T15:05:14;29.00;67.60
18041;DHT22;9145;48.588;9.250;2023-07-13T15:07:42;28.80;68.80
18041;DHT22;9145;48.588;9.250;2023-07-13T15:10:15;28.60;68.20
18041;DHT22;9145;48.588;9.250;2023-07-13T15:12:42;28.60;72.70
18041;DHT22;9145;48.588;9.250;2023-07-13T15:15:09;28.90;73.00
18041;DHT22;9145;48.588;9.250;2023-07-13T15:17:37;29.90;75.10
18041;DHT22;9145;48.588;9.250;2023-07-13T15:20:11;30.10;74.10
18041;DHT22;9145;48.588;9.250;2023-07-13T15:22:41;29.80;72.70
18041;DHT22;9145;48.588;9.250;2023-07-13T15:25:19;29.40;73.80
18041;DHT22;9145;48.588;9.250;2023-07-13T15:27:47;29.30;76.60
18041;DHT22;9145;48.588;9.250;2023-07-13T15:30:14;30.00;75.30
18041;DHT22;9145;48.588;9.250;2023-07-13T15:32:41;30.00;74.80
18041;DHT22;9145;48.588;9.250;2023-07-13T15:35:14;30.30;76.80
18041;DHT22;9145;48.588;9.250;2023-07-13T15:37:41;30.70;74.00
18041;DHT22;9145;48.588;9.250;2023-07-13T15:40:10;31.30;73.90
18041;DHT22;9145;48.588;9.250;2023-07-13T15:42:39;31.80;71.40
18041;DHT22;9145;48.588;9.250;2023-07-13T15:45:15;31.50;69.70
18041;DHT22;9145;48.588;9.250;2023-07-13T15:47:42;31.10;71.00
18041;DHT22;9145;48.588;9.250;2023-07-13T15:50:12;30.60;72.80
18041;DHT22;9145;48.588;9.250;2023-07-13T15:52:39;30.40;72.90
18041;DHT22;9145;48.588;9.250;2023-07-13T15:55:10;30.40;74.40